Time;durP1;ratioP1;P1;durP2;ratioP2;P2;SDS_P1;SDS_P2;PMS_P1;PMS_P2;Temp;Humidity;BMP_temperature;BMP_pressure;BME280_temperature;BME280_humidity;BME280_pressure;Samples;Min_cycle;Max_cycle;Signal;HPM_P1;HPM_P2
2022/06/26 00:01:13;;;;;;;;;1.00;0.00;;;;;15.94;69.92;100503.34;5095218;27;45509;-78
2022/06/26 00:03:39;;;;;;;;;0.25;0.25;;;;;15.81;70.09;100490.56;5093850;27;45485;-78
2022/06/26 00:06:04;;;;;;;;;2.25;1.25;;;;;15.84;70.15;100505.56;5097624;27;45465;-77
2022/06/26 00:08:29;;;;;;;;;0.00;0.00;;;;;15.81;70.50;100501.22;5097167;27;46434;-77
2022/06/26 00:10:55;;;;;;;;;1.00;1.00;;;;;15.86;70.64;100518.81;5096947;27;45395;-75
2022/06/26 00:13:20;;;;;;;;;0.00;0.00;;;;;15.77;70.72;100509.38;5096556;27;45553;-77
2022/06/26 00:15:46;;;;;;;;;1.50;0.50;;;;;15.76;70.73;100504.97;5097125;27;45504;-77
2022/06/26 00:18:12;;;;;;;;;1.25;1.00;;;;;15.75;70.47;100509.44;5097587;27;45496;-78
2022/06/26 00:20:37;;;;;;;;;1.00;1.00;;;;;15.73;70.97;100508.66;5100256;27;45339;-78
2022/06/26 00:23:03;;;;;;;;;1.00;1.00;;;;;15.74;71.06;100509.50;5098913;27;45412;-78
2022/06/26 00:25:29;;;;;;;;;0.00;0.00;;;;;15.78;71.06;100512.00;5096185;27;45289;-76
2022/06/26 00:27:54;;;;;;;;;0.00;0.00;;;;;15.71;70.80;100491.84;5097355;27;45383;-77
2022/06/26 00:30:20;;;;;;;;;0.00;0.00;;;;;15.73;71.04;100499.78;5097626;27;45415;-77
2022/06/26 00:32:46;;;;;;;;;0.00;0.00;;;;;15.72;70.90;100498.91;5103521;27;45452;-78
2022/06/26 00:35:12;;;;;;;;;1.00;0.00;;;;;15.78;70.88;100500.50;5103587;27;45398;-77
2022/06/26 00:37:37;;;;;;;;;1.00;0.00;;;;;15.77;70.73;100498.72;5099564;27;46657;-78
2022/06/26 00:40:03;;;;;;;;;3.50;0.25;;;;;15.71;71.08;100489.19;5096420;27;45365;-77
2022/06/26 00:42:28;;;;;;;;;0.00;0.00;;;;;15.73;70.77;100492.69;5097694;27;45322;-81
2022/06/26 00:44:55;;;;;;;;;0.25;0.25;;;;;15.70;71.07;100487.47;5113793;27;45626;-81
2022/06/26 00:47:22;;;;;;;;;0.00;0.00;;;;;15.59;70.85;100473.72;5098095;27;46273;-78
2022/06/26 00:49:49;;;;;;;;;0.00;0.00;;;;;15.68;70.86;100478.66;5098638;27;45398;-79
2022/06/26 00:52:16;;;;;;;;;0.00;0.00;;;;;15.72;70.87;100500.72;5101387;27;45276;-77
2022/06/26 00:54:41;;;;;;;;;0.00;0.00;;;;;15.68;70.83;100505.31;5095682;27;45425;-77
2022/06/26 00:57:07;;;;;;;;;0.00;0.00;;;;;15.70;70.78;100503.47;5097354;27;46254;-78
2022/06/26 00:59:33;;;;;;;;;1.00;0.00;;;;;15.68;70.94;100504.44;5097809;27;45591;-78
2022/06/26 01:01:59;;;;;;;;;0.00;0.00;;;;;15.75;70.63;100511.25;5097477;27;45500;-78
2022/06/26 01:04:25;;;;;;;;;0.00;0.00;;;;;15.76;70.21;100519.19;5097095;27;45394;-78
2022/06/26 01:06:51;;;;;;;;;0.50;0.50;;;;;15.64;70.56;100490.41;5097795;27;45551;-81
2022/06/26 01:09:17;;;;;;;;;2.00;0.00;;;;;15.66;70.28;100501.84;5113022;27;45490;-82
2022/06/26 01:11:44;;;;;;;;;0.75;0.75;;;;;15.73;70.13;100499.78;5097843;27;45546;-80
2022/06/26 01:14:10;;;;;;;;;1.00;1.00;;;;;15.73;70.19;100511.31;5098085;27;45355;-82
2022/06/26 01:16:36;;;;;;;;;0.25;0.25;;;;;15.73;70.42;100524.66;5099247;27;46498;-81
2022/06/26 01:19:05;;;;;;;;;0.00;0.00;;;;;15.70;70.14;100522.13;5103890;27;45452;-80
2022/06/26 01:21:33;;;;;;;;;1.00;0.00;;;;;15.74;70.13;100523.69;5115767;27;45410;-80
2022/06/26 01:23:59;;;;;;;;;0.00;0.00;;;;;15.69;70.02;100507.03;5098730;27;45410;-81
2022/06/26 01:26:26;;;;;;;;;0.00;0.00;;;;;15.70;69.90;100522.13;5097408;27;46422;-80
2022/06/26 01:28:51;;;;;;;;;1.00;1.00;;;;;15.61;70.15;100511.84;5097034;27;45468;-80
2022/06/26 01:31:19;;;;;;;;;0.00;0.00;;;;;15.66;70.04;100523.16;5097677;27;45403;-81
2022/06/26 01:33:47;;;;;;;;;0.75;0.00;;;;;15.63;70.06;100517.97;5097098;27;45701;-81
2022/06/26 01:36:13;;;;;;;;;4.75;0.75;;;;;15.44;69.96;100492.09;5096548;27;45761;-80
2022/06/26 01:38:38;;;;;;;;;0.75;0.75;;;;;15.62;70.13;100526.88;5096232;27;45502;-82
2022/06/26 01:41:04;;;;;;;;;0.25;0.00;;;;;15.57;69.76;100518.22;5097012;27;45641;-81
2022/06/26 01:43:32;;;;;;;;;0.00;0.00;;;;;15.63;69.67;100532.13;5097035;27;45470;-82
2022/06/26 01:46:01;;;;;;;;;1.50;0.50;;;;;15.62;69.80;100543.75;5098193;27;45469;-81
2022/06/26 01:48:28;;;;;;;;;0.00;0.00;;;;;15.61;70.02;100542.00;5101934;27;45397;-81
2022/06/26 01:50:55;;;;;;;;;0.50;0.50;;;;;15.58;70.02;100546.59;5099944;27;45389;-80
2022/06/26 01:53:21;;;;;;;;;1.75;0.25;;;;;15.56;69.59;100533.34;5092176;27;45405;-83
2022/06/26 01:55:46;;;;;;;;;0.00;0.00;;;;;15.60;69.60;100529.59;5074523;28;47020;-81
2022/06/26 01:58:13;;;;;;;;;0.00;0.00;;;;;15.57;69.72;100520.88;5074686;28;45442;-81
2022/06/26 02:00:41;;;;;;;;;1.00;1.00;;;;;15.64;69.72;100530.38;5076503;27;45460;-81
2022/06/26 02:03:08;;;;;;;;;4.00;4.00;;;;;15.59;69.46;100521.69;5075924;27;45530;-81
2022/06/26 02:05:34;;;;;;;;;0.50;0.00;;;;;15.66;69.76;100549.81;5083776;27;45460;-81
2022/06/26 02:08:00;;;;;;;;;0.00;0.00;;;;;15.65;69.41;100524.09;5094836;27;45386;-81
2022/06/26 02:15:57;;;;;;;;;1.00;1.00;;;;;15.61;69.65;100525.16;5098531;27;45901;-81
2022/06/26 02:18:22;;;;;;;;;0.00;0.00;;;;;15.58;69.88;100528.81;5098573;27;45415;-80
2022/06/26 02:20:48;;;;;;;;;1.00;1.00;;;;;15.62;69.71;100527.75;5101253;27;45322;-81
2022/06/26 02:23:14;;;;;;;;;0.50;0.50;;;;;15.72;69.47;100544.22;5098709;27;45332;-80
2022/06/26 02:25:40;;;;;;;;;1.00;1.00;;;;;15.76;69.32;100537.84;5097941;27;46062;-81
2022/06/26 02:28:07;;;;;;;;;0.00;0.00;;;;;15.67;68.89;100522.25;5097174;27;45390;-81
2022/06/26 02:30:33;;;;;;;;;1.00;1.00;;;;;15.85;68.97;100546.41;5105291;27;45325;-80
2022/06/26 02:32:58;;;;;;;;;0.00;0.00;;;;;15.81;68.96;100538.53;5110062;27;45393;-81
2022/06/26 02:35:25;;;;;;;;;1.00;1.00;;;;;15.84;68.59;100537.53;5105381;27;45519;-81
2022/06/26 02:37:51;;;;;;;;;0.50;0.50;;;;;15.84;68.73;100529.56;5099419;27;45443;-81
2022/06/26 02:40:19;;;;;;;;;1.25;1.00;;;;;15.70;68.75;100503.47;5096420;27;45361;-82
2022/06/26 02:42:45;;;;;;;;;2.25;1.00;;;;;15.81;68.65;100522.53;5098166;27;45676;-81
2022/06/26 02:45:10;;;;;;;;;1.25;1.25;;;;;15.75;68.53;100522.78;5097289;27;45511;-81
2022/06/26 02:47:36;;;;;;;;;0.75;0.75;;;;;15.61;68.56;100495.88;5100143;27;45511;-81
2022/06/26 02:50:02;;;;;;;;;2.00;2.00;;;;;15.75;68.82;100514.78;5100312;27;45467;-82
2022/06/26 02:52:28;;;;;;;;;1.25;1.00;;;;;15.69;68.76;100512.38;5086400;27;45371;-81
2022/06/26 02:54:53;;;;;;;;;1.50;0.75;;;;;15.77;68.68;100526.25;5080640;27;45447;-80
2022/06/26 02:57:19;;;;;;;;;0.00;0.00;;;;;15.71;68.70;100521.16;5098699;27;45560;-81
2022/06/26 02:59:44;;;;;;;;;1.00;0.50;;;;;15.79;68.53;100532.41;5096978;27;45378;-81
2022/06/26 03:02:09;;;;;;;;;0.00;0.00;;;;;15.70;68.60;100522.13;5097373;27;45457;-82
2022/06/26 03:04:35;;;;;;;;;2.00;0.75;;;;;15.72;68.53;100536.22;5096683;27;46048;-80
2022/06/26 03:07:00;;;;;;;;;1.75;1.00;;;;;15.80;68.61;100550.16;5097666;27;45552;-82
2022/06/26 03:09:25;;;;;;;;;2.00;0.75;;;;;15.75;68.42;100545.91;5095808;27;45389;-81
2022/06/26 03:11:51;;;;;;;;;1.00;1.00;;;;;15.66;68.49;100536.47;5096368;27;45406;-82
2022/06/26 03:14:16;;;;;;;;;0.75;0.00;;;;;15.77;68.37;100552.91;5102364;27;46481;-81
2022/06/26 03:16:41;;;;;;;;;1.00;1.00;;;;;15.76;68.45;100550.28;5106576;27;45344;-80
2022/06/26 03:19:07;;;;;;;;;0.25;0.25;;;;;15.75;68.05;100548.56;5101364;27;45480;-81
2022/06/26 03:21:32;;;;;;;;;0.75;0.75;;;;;15.77;67.88;100542.25;5097200;27;45425;-81
2022/06/26 03:24:03;;;;;;;;;0.00;0.00;;;;;15.76;67.94;100540.50;5095741;27;47979;-81
2022/06/26 03:26:36;;;;;;;;;3.50;1.00;;;;;15.71;68.11;100553.13;5096696;27;45406;-80
2022/06/26 03:29:08;;;;;;;;;0.50;0.00;;;;;15.77;67.92;100550.25;5094909;27;45390;-81
2022/06/26 03:31:34;;;;;;;;;1.00;1.00;;;;;15.79;68.50;100548.41;5095535;27;45329;-81
2022/06/26 03:33:59;;;;;;;;;0.00;0.00;;;;;15.79;67.89;100560.84;5095089;27;47215;-80
2022/06/26 03:36:27;;;;;;;;;1.75;1.75;;;;;15.72;67.84;100559.34;5095658;27;45356;-81
2022/06/26 03:38:54;;;;;;;;;0.00;0.00;;;;;15.65;68.43;100558.72;5095117;27;45359;-81
2022/06/26 03:41:20;;;;;;;;;0.50;0.50;;;;;15.71;67.91;100553.13;5099599;27;45382;-81
2022/06/26 03:43:45;;;;;;;;;1.75;1.75;;;;;15.72;67.90;100557.53;5098873;27;46237;-81
2022/06/26 03:46:11;;;;;;;;;0.50;0.50;;;;;15.72;67.96;100554.88;5089221;27;45481;-82
2022/06/26 03:48:36;;;;;;;;;0.25;0.25;;;;;15.76;67.64;100559.16;5079926;27;45352;-81
2022/06/26 03:51:03;;;;;;;;;0.00;0.00;;;;;15.76;67.60;100560.94;5086381;27;45282;-80
2022/06/26 03:53:29;;;;;;;;;1.00;0.25;;;;;15.61;67.63;100538.47;5100636;27;45429;-82
2022/06/26 03:55:54;;;;;;;;;2.50;1.00;;;;;15.71;67.65;100558.47;5099495;27;45473;-81
2022/06/26 03:58:20;;;;;;;;;0.00;0.00;;;;;15.71;67.48;100561.13;5097402;27;45429;-81
2022/06/26 04:00:45;;;;;;;;;3.00;1.00;;;;;15.73;67.22;100572.59;5099674;27;45572;-81
2022/06/26 04:03:11;;;;;;;;;2.75;2.00;;;;;15.72;67.23;100576.19;5099119;27;45427;-81
2022/06/26 04:05:39;;;;;;;;;2.75;0.00;;;;;15.75;67.41;100585.88;5098925;27;45422;-81
2022/06/26 04:08:06;;;;;;;;;2.00;1.00;;;;;15.66;67.48;100576.44;5097597;27;45368;-81
2022/06/26 04:10:31;;;;;;;;;0.25;0.00;;;;;15.78;66.94;100585.78;5098264;27;45579;-78
2022/06/26 04:13:02;;;;;;;;;0.00;0.00;;;;;15.73;66.73;100577.94;5097653;27;45423;-77
2022/06/26 04:15:33;;;;;;;;;1.50;0.25;;;;;15.79;66.96;100599.03;5096536;27;45509;-78
2022/06/26 04:17:58;;;;;;;;;0.75;0.75;;;;;15.81;66.22;100607.81;5097768;27;45445;-79
2022/06/26 04:20:24;;;;;;;;;0.00;0.00;;;;;15.76;66.43;100593.78;5101077;27;45450;-76
2022/06/26 04:23:02;;;;;;;;;1.50;1.00;;;;;15.86;66.08;100604.09;5098275;27;45548;-78
2022/06/26 04:25:30;;;;;;;;;1.00;1.00;;;;;15.91;65.26;100616.31;5097530;27;45357;-77
2022/06/26 04:27:56;;;;;;;;;1.50;1.00;;;;;15.82;65.33;100592.72;5098014;27;45442;-79
2022/06/26 04:30:22;;;;;;;;;0.00;0.00;;;;;15.88;64.99;100607.56;5108486;27;45473;-77
2022/06/26 04:32:48;;;;;;;;;2.00;1.00;;;;;15.87;65.20;100603.19;5103679;27;46882;-81
2022/06/26 04:35:14;;;;;;;;;1.00;1.00;;;;;15.92;65.37;100598.50;5097643;27;45517;-82
2022/06/26 04:37:40;;;;;;;;;2.00;1.00;;;;;16.02;64.78;100614.97;5098851;27;45585;-81
2022/06/26 04:40:08;;;;;;;;;0.25;0.25;;;;;16.06;64.54;100612.13;5097403;27;45500;-77
2022/06/26 04:42:34;;;;;;;;;1.00;0.00;;;;;16.11;64.22;100614.59;5097298;27;45396;-77
2022/06/26 04:44:59;;;;;;;;;0.75;0.75;;;;;16.10;63.57;100608.41;5102791;27;45447;-81
2022/06/26 04:47:25;;;;;;;;;1.50;1.00;;;;;16.22;63.44;100616.81;5105475;27;45739;-81
2022/06/26 04:49:50;;;;;;;;;0.00;0.00;;;;;16.36;62.51;100619.75;5102484;27;45538;-82
2022/06/26 04:52:16;;;;;;;;;0.00;0.00;;;;;16.48;61.70;100627.22;5088234;27;47247;-82
2022/06/26 04:54:42;;;;;;;;;0.75;0.00;;;;;16.59;62.45;100625.88;5098381;27;45495;-78
2022/06/26 04:57:08;;;;;;;;;0.25;0.25;;;;;16.75;61.34;100629.59;5097075;27;45417;-77
2022/06/26 04:59:34;;;;;;;;;0.50;0.50;;;;;16.88;60.72;100627.25;5096909;27;45386;-77
2022/06/26 05:01:59;;;;;;;;;0.00;0.00;;;;;16.97;60.54;100620.63;5095982;27;46684;-78
2022/06/26 05:04:24;;;;;;;;;0.00;0.00;;;;;17.28;59.36;100632.56;5096379;27;45378;-77
2022/06/26 05:06:50;;;;;;;;;1.25;0.75;;;;;17.62;58.77;100629.16;5096537;27;45332;-77
2022/06/26 05:09:16;;;;;;;;;1.25;1.25;;;;;17.75;57.84;100629.44;5096772;27;45387;-78
2022/06/26 05:11:42;;;;;;;;;0.25;0.25;;;;;17.78;57.59;100629.28;5096489;27;45441;-76
2022/06/26 05:14:08;;;;;;;;;1.00;1.00;;;;;17.80;57.84;100627.38;5097267;27;45532;-78
2022/06/26 05:16:33;;;;;;;;;2.00;1.00;;;;;17.70;57.42;100629.66;5101991;27;45368;-78
2022/06/26 05:18:58;;;;;;;;;0.25;0.25;;;;;17.61;57.18;100626.56;5103473;27;45648;-77
2022/06/26 05:21:24;;;;;;;;;0.50;0.50;;;;;17.62;57.70;100633.63;5098869;27;46753;-76
2022/06/26 05:23:49;;;;;;;;;0.50;0.50;;;;;17.57;57.61;100632.03;5097821;27;45303;-77
2022/06/26 05:26:15;;;;;;;;;1.75;1.00;;;;;17.55;57.65;100633.03;5091161;27;45381;-76
2022/06/26 05:28:40;;;;;;;;;2.25;1.25;;;;;17.53;57.97;100625.09;5076406;27;45322;-78
2022/06/26 05:31:05;;;;;;;;;0.00;0.00;;;;;17.45;57.62;100627.28;5074948;27;45429;-78
2022/06/26 05:33:31;;;;;;;;;0.00;0.00;;;;;17.39;57.91;100622.25;5075274;27;45393;-78
2022/06/26 05:35:56;;;;;;;;;2.00;1.00;;;;;17.44;58.02;100638.91;5075043;28;45431;-77
2022/06/26 05:38:22;;;;;;;;;1.25;1.25;;;;;17.43;57.96;100644.31;5076327;27;45438;-80
2022/06/26 05:40:47;;;;;;;;;2.25;0.50;;;;;17.42;57.98;100651.50;5091793;27;48240;-82
2022/06/26 05:43:12;;;;;;;;;0.25;0.00;;;;;17.33;57.43;100638.56;5076732;27;45383;-82
2022/06/26 05:45:38;;;;;;;;;1.25;0.25;;;;;17.37;58.20;100640.16;5076998;27;45870;-81
2022/06/26 05:48:03;;;;;;;;;0.00;0.00;;;;;17.41;57.90;100652.41;5079467;28;45473;-82
2022/06/26 05:50:29;;;;;;;;;0.00;0.00;;;;;17.46;57.81;100647.75;5081224;28;45479;-81
2022/06/26 05:52:55;;;;;;;;;0.00;0.00;;;;;17.49;58.00;100639.56;5085029;27;45850;-82
2022/06/26 05:55:20;;;;;;;;;5.00;1.00;;;;;17.56;57.10;100646.34;5096912;27;45305;-81
2022/06/26 05:57:46;;;;;;;;;1.75;1.75;;;;;17.60;57.29;100636.38;5096634;27;45406;-81
2022/06/26 06:00:12;;;;;;;;;0.00;0.00;;;;;17.66;56.70;100651.22;5095961;27;46636;-82
2022/06/26 06:02:37;;;;;;;;;3.00;1.00;;;;;17.81;56.58;100660.31;5096416;27;45397;-81
2022/06/26 06:05:03;;;;;;;;;0.00;0.00;;;;;17.90;55.76;100649.19;5095459;27;45462;-82
2022/06/26 06:07:29;;;;;;;;;0.00;0.00;;;;;18.03;55.77;100647.66;5097546;27;45389;-82
2022/06/26 06:09:54;;;;;;;;;0.00;0.00;;;;;18.18;54.54;100650.53;5096639;27;45365;-81
2022/06/26 06:12:19;;;;;;;;;2.00;1.00;;;;;18.27;54.78;100653.59;5097337;27;45276;-81
2022/06/26 06:14:45;;;;;;;;;0.75;0.75;;;;;18.29;54.01;100645.47;5096361;27;45314;-81
2022/06/26 06:19:55;;;;;;;;;0.00;0.00;;;;;18.46;53.90;100660.66;5098981;27;45382;-82
2022/06/26 06:22:20;;;;;;;;;1.00;1.00;;;;;18.49;53.03;100657.81;5098549;27;45709;-82
2022/06/26 06:24:45;;;;;;;;;0.25;0.00;;;;;18.57;52.78;100665.44;5099310;27;48803;-80
2022/06/26 06:27:11;;;;;;;;;0.00;0.00;;;;;18.66;52.73;100665.00;5105777;27;45651;-81
2022/06/26 06:29:36;;;;;;;;;0.00;0.00;;;;;18.67;52.41;100661.34;5108121;27;45411;-80
2022/06/26 06:32:02;;;;;;;;;1.00;1.00;;;;;18.79;52.58;100668.72;5102949;27;45402;-82
2022/06/26 06:34:27;;;;;;;;;0.00;0.00;;;;;19.01;51.55;100664.97;5097547;27;45526;-77
2022/06/26 06:36:52;;;;;;;;;0.25;0.00;;;;;19.22;51.55;100665.63;5095989;27;45382;-78
2022/06/26 06:39:20;;;;;;;;;1.50;0.00;;;;;19.34;50.25;100667.63;5095535;27;46085;-78
2022/06/26 06:41:45;;;;;;;;;0.25;0.25;;;;;19.54;49.93;100679.06;5095815;27;45480;-77
2022/06/26 06:44:11;;;;;;;;;1.25;1.25;;;;;20.03;49.63;100678.09;5095100;27;45350;-75
2022/06/26 06:46:36;;;;;;;;;1.75;0.00;;;;;20.34;48.30;100669.09;5094636;27;45617;-77
2022/06/26 06:49:01;;;;;;;;;0.00;0.00;;;;;20.59;47.75;100667.66;5095596;27;47218;-78
2022/06/26 06:51:27;;;;;;;;;0.00;0.00;;;;;21.02;46.61;100674.91;5098297;27;45296;-78
2022/06/26 06:53:52;;;;;;;;;2.00;1.00;;;;;21.53;45.81;100666.34;5096874;27;45342;-77
2022/06/26 06:56:18;;;;;;;;;0.75;0.00;;;;;21.91;44.84;100677.31;5095158;27;45331;-77
2022/06/26 06:58:43;;;;;;;;;0.00;0.00;;;;;22.16;44.45;100681.91;5094794;27;45390;-78
2022/06/26 07:01:08;;;;;;;;;1.25;0.00;;;;;22.47;43.28;100690.66;5094699;27;45299;-77
2022/06/26 07:03:34;;;;;;;;;0.00;0.00;;;;;22.88;42.94;100676.16;5094712;27;45981;-77
2022/06/26 07:05:59;;;;;;;;;2.00;1.00;;;;;23.40;41.11;100692.31;5094404;27;48919;-77
2022/06/26 07:08:24;;;;;;;;;0.00;0.00;;;;;23.87;40.26;100682.59;5093304;27;47963;-78
2022/06/26 07:10:50;;;;;;;;;0.00;0.00;;;;;24.53;39.81;100678.59;5094565;27;45469;-78
2022/06/26 07:13:15;;;;;;;;;0.00;0.00;;;;;25.09;38.06;100684.09;5110298;27;45531;-78
2022/06/26 07:15:40;;;;;;;;;0.00;0.00;;;;;25.19;37.09;100690.50;5099772;27;45373;-78
2022/06/26 07:18:06;;;;;;;;;0.00;0.00;;;;;25.21;37.56;100687.69;5101517;27;46751;-78
2022/06/26 07:20:31;;;;;;;;;2.00;0.00;;;;;25.34;35.85;100695.69;5098332;27;45487;-78
2022/06/26 07:22:57;;;;;;;;;0.00;0.00;;;;;25.50;35.30;100684.50;5099834;27;45395;-79
2022/06/26 07:25:22;;;;;;;;;1.00;1.00;;;;;25.72;34.85;100699.81;5098739;27;45419;-78
2022/06/26 07:27:48;;;;;;;;;0.00;0.00;;;;;26.05;35.76;100701.66;5098060;27;45471;-78
2022/06/26 07:30:13;;;;;;;;;0.00;0.00;;;;;26.38;34.28;100707.91;5097682;27;45412;-78
2022/06/26 07:32:39;;;;;;;;;0.00;0.00;;;;;27.08;34.67;100719.09;5097422;27;45464;-78
2022/06/26 07:35:04;;;;;;;;;0.00;0.00;;;;;27.72;32.48;100729.81;5098234;27;45524;-77
2022/06/26 07:37:30;;;;;;;;;0.00;0.00;;;;;28.00;33.81;100717.38;5098924;27;45558;-78
2022/06/26 07:39:56;;;;;;;;;1.00;1.00;;;;;28.57;32.09;100712.06;5098009;27;45391;-77
2022/06/26 07:42:22;;;;;;;;;2.00;0.00;;;;;29.05;29.40;100711.16;5097388;27;45556;-78
2022/06/26 07:44:48;;;;;;;;;0.00;0.00;;;;;29.42;29.03;100717.63;5097964;27;45438;-78
2022/06/26 07:47:13;;;;;;;;;0.25;0.00;;;;;29.68;28.40;100701.44;5097933;27;46115;-78
2022/06/26 07:49:38;;;;;;;;;1.00;0.00;;;;;29.83;27.64;100709.13;5098271;27;45327;-77
2022/06/26 07:52:04;;;;;;;;;0.00;0.00;;;;;29.86;28.57;100706.13;5103476;27;45570;-78
2022/06/26 07:54:29;;;;;;;;;1.25;0.00;;;;;29.73;27.84;100704.59;5098480;27;45579;-78
2022/06/26 07:56:55;;;;;;;;;1.00;0.00;;;;;29.59;28.30;100713.25;5097344;27;45471;-77
2022/06/26 07:59:20;;;;;;;;;1.00;0.00;;;;;29.45;27.72;100692.00;5096579;27;45494;-77
2022/06/26 08:01:45;;;;;;;;;1.00;1.00;;;;;29.33;28.15;100708.50;5097862;27;45736;-78
2022/06/26 08:04:11;;;;;;;;;0.25;0.25;;;;;29.02;28.08;100710.59;5112788;27;45570;-78
2022/06/26 08:06:36;;;;;;;;;0.00;0.00;;;;;28.92;28.36;100717.91;5097389;27;46316;-78
2022/06/26 08:09:02;;;;;;;;;1.00;1.00;;;;;28.50;28.54;100719.94;5097096;27;45416;-79
2022/06/26 08:11:27;;;;;;;;;0.00;0.00;;;;;28.34;28.36;100706.06;5097463;27;45410;-76
2022/06/26 08:13:53;;;;;;;;;0.00;0.00;;;;;28.43;29.69;100709.81;5113054;27;45483;-78
2022/06/26 08:16:19;;;;;;;;;0.00;0.00;;;;;28.41;29.83;100707.22;5097681;27;45912;-78
2022/06/26 08:18:44;;;;;;;;;0.00;0.00;;;;;28.50;30.51;100697.34;5097555;27;45336;-78
2022/06/26 08:23:54;;;;;;;;;0.00;0.00;;;;;28.83;28.71;100689.72;5102672;27;45528;-82
2022/06/26 08:26:19;;;;;;;;;0.00;0.00;;;;;28.91;28.76;100694.44;5102853;27;45509;-82
2022/06/26 08:28:45;;;;;;;;;1.00;0.00;;;;;28.89;29.56;100709.06;5112824;27;45294;-78
2022/06/26 08:31:10;;;;;;;;;2.25;0.00;;;;;28.68;28.53;100705.66;5099664;27;45295;-82
2022/06/26 08:33:36;;;;;;;;;0.00;0.00;;;;;28.54;29.32;100707.81;5097210;27;45426;-79
2022/06/26 08:36:02;;;;;;;;;1.00;1.00;;;;;28.65;28.33;100708.66;5097715;27;45585;-82
2022/06/26 08:38:27;;;;;;;;;0.00;0.00;;;;;28.52;28.37;100715.22;5095589;27;45413;-78
2022/06/26 08:40:53;;;;;;;;;2.50;0.75;;;;;28.05;28.09;100711.50;5098031;27;45359;-83
2022/06/26 08:43:21;;;;;;;;;0.00;0.00;;;;;28.04;28.44;100716.06;5096593;27;45408;-82
2022/06/26 08:45:50;;;;;;;;;0.50;0.00;;;;;28.19;29.57;100706.50;5099480;27;45563;-81
2022/06/26 08:48:19;;;;;;;;;0.50;0.50;;;;;28.79;28.90;100704.63;5098698;27;45429;-82
2022/06/26 08:50:44;;;;;;;;;1.00;1.00;;;;;29.33;27.82;100707.66;5098541;27;45371;-79
2022/06/26 08:53:11;;;;;;;;;0.00;0.00;;;;;29.37;28.79;100692.75;5099912;27;45398;-78
2022/06/26 08:55:37;;;;;;;;;1.00;0.00;;;;;29.76;27.95;100697.97;5099413;27;45483;-78
2022/06/26 08:58:02;;;;;;;;;1.25;1.00;;;;;30.20;27.74;100687.22;5097989;27;45445;-82
2022/06/26 09:00:30;;;;;;;;;0.50;0.50;;;;;30.72;27.02;100693.81;5098000;27;45521;-82
2022/06/26 09:02:55;;;;;;;;;0.50;0.00;;;;;30.84;27.05;100689.81;5097170;27;45437;-82
2022/06/26 09:05:21;;;;;;;;;0.00;0.00;;;;;30.30;27.07;100668.06;5096745;27;45566;-79
2022/06/26 09:07:48;;;;;;;;;0.00;0.00;;;;;30.40;27.04;100692.53;5096881;27;45604;-82
2022/06/26 09:10:17;;;;;;;;;0.25;0.00;;;;;30.40;25.90;100681.66;5098552;27;45307;-82
2022/06/26 09:12:43;;;;;;;;;1.00;1.00;;;;;30.49;26.48;100686.16;5097973;27;45471;-78
2022/06/26 09:15:16;;;;;;;;;0.00;0.00;;;;;30.63;27.08;100674.66;5098491;27;46270;-82
2022/06/26 09:17:42;;;;;;;;;0.00;0.00;;;;;30.79;26.61;100668.47;5098067;27;45603;-81
2022/06/26 09:20:11;;;;;;;;;0.00;0.00;;;;;30.65;25.79;100677.22;5107105;27;45418;-79
2022/06/26 09:22:50;;;;;;;;;0.25;0.00;;;;;30.43;26.49;100676.72;5105391;27;45595;-81
2022/06/26 09:25:16;;;;;;;;;2.00;1.00;;;;;30.19;26.77;100636.47;5102504;27;45418;-81
2022/06/26 09:27:50;;;;;;;;;1.00;1.00;;;;;30.20;25.48;100656.38;5101147;27;45496;-80
2022/06/26 09:30:15;;;;;;;;;0.00;0.00;;;;;30.11;26.07;100663.66;5095132;27;45489;-79
2022/06/26 09:32:41;;;;;;;;;0.00;0.00;;;;;29.94;25.13;100663.47;5097495;27;45359;-82
2022/06/26 09:35:07;;;;;;;;;0.00;0.00;;;;;30.25;26.85;100676.69;5096950;27;47377;-82
2022/06/26 09:37:48;;;;;;;;;0.50;0.00;;;;;30.45;26.37;100666.50;5094975;27;45476;-78
2022/06/26 09:40:15;;;;;;;;;0.00;0.00;;;;;30.11;25.27;100663.66;5096056;27;45394;-78
2022/06/26 09:42:41;;;;;;;;;0.25;0.25;;;;;29.94;27.47;100666.22;5095935;27;45540;-78
2022/06/26 09:45:09;;;;;;;;;0.00;0.00;;;;;30.14;25.60;100668.78;5096158;27;45983;-78
2022/06/26 09:47:35;;;;;;;;;2.00;0.00;;;;;29.78;26.16;100677.75;5095838;27;45379;-78
2022/06/26 09:50:03;;;;;;;;;0.00;0.00;;;;;29.24;26.62;100671.31;5095319;27;45476;-78
2022/06/26 09:52:31;;;;;;;;;0.75;0.00;;;;;29.19;27.02;100674.44;5096424;27;45421;-82
2022/06/26 09:55:00;;;;;;;;;0.25;0.25;;;;;29.20;27.56;100672.59;5099831;27;46050;-80
2022/06/26 09:57:27;;;;;;;;;1.00;1.00;;;;;28.83;26.57;100685.19;5103104;27;45442;-81
2022/06/26 09:59:56;;;;;;;;;0.25;0.25;;;;;28.57;26.36;100673.16;5097906;27;45411;-78
2022/06/26 10:08:05;;;;;;;;;1.00;0.00;;;;;28.42;27.29;100673.59;5097017;27;45376;-82
2022/06/26 10:10:43;;;;;;;;;0.50;0.00;;;;;28.48;28.53;100681.16;5096879;27;45359;-82
2022/06/26 10:13:11;;;;;;;;;0.00;0.00;;;;;28.81;28.15;100679.00;5096016;27;45520;-79
2022/06/26 10:15:55;;;;;;;;;1.00;0.00;;;;;29.16;27.86;100682.91;5095842;27;46518;-79
2022/06/26 10:18:37;;;;;;;;;1.25;1.25;;;;;29.58;26.83;100673.44;5095727;27;45455;-78
2022/06/26 10:21:09;;;;;;;;;2.00;0.00;;;;;29.85;26.75;100669.84;5095364;27;45378;-78
2022/06/26 10:23:39;;;;;;;;;0.50;0.50;;;;;30.22;26.12;100660.66;5094600;27;45691;-78
2022/06/26 10:26:16;;;;;;;;;0.75;0.75;;;;;30.60;24.70;100663.22;5101323;27;45708;-79
2022/06/26 10:29:08;;;;;;;;;1.50;1.00;;;;;30.94;25.57;100676.03;5110215;27;45357;-79
2022/06/26 10:31:47;;;;;;;;;2.50;0.00;;;;;31.20;24.55;100670.59;5096996;27;45278;-77
2022/06/26 10:34:19;;;;;;;;;0.50;0.50;;;;;31.59;24.91;100672.81;5094289;27;45506;-78
2022/06/26 10:37:15;;;;;;;;;0.00;0.00;;;;;32.06;24.62;100669.50;5096056;27;45660;-79
2022/06/26 10:39:49;;;;;;;;;0.00;0.00;;;;;32.19;24.37;100654.50;5093383;27;45549;-82
2022/06/26 10:45:06;;;;;;;;;1.00;0.00;;;;;31.83;24.49;100674.78;5096133;27;45540;-78
2022/06/26 10:47:40;;;;;;;;;0.00;0.00;;;;;31.58;24.75;100690.22;5095911;27;46183;-81
2022/06/26 10:50:41;;;;;;;;;0.75;0.75;;;;;31.52;23.98;100682.66;5093237;27;45648;-79
2022/06/26 10:53:25;;;;;;;;;1.00;1.00;;;;;30.81;23.93;100673.75;5094511;27;45265;-77
2022/06/26 10:55:50;;;;;;;;;0.00;0.00;;;;;31.20;24.02;100677.94;5096243;27;45354;-80
2022/06/26 10:58:31;;;;;;;;;0.25;0.25;;;;;31.05;24.19;100675.81;5098167;27;47096;-81
2022/06/26 11:01:02;;;;;;;;;0.00;0.00;;;;;30.53;25.09;100678.50;5096564;27;45504;-82
2022/06/26 11:03:29;;;;;;;;;0.50;0.50;;;;;30.23;24.98;100672.41;5095173;27;45442;-77
2022/06/26 11:06:09;;;;;;;;;0.50;0.50;;;;;30.22;26.49;100676.16;5095651;27;45513;-81
2022/06/26 11:08:44;;;;;;;;;2.25;1.75;;;;;30.55;24.89;100677.34;5099094;27;47165;-82
2022/06/26 11:11:20;;;;;;;;;0.00;0.00;;;;;30.71;25.30;100665.66;5095098;27;45295;-82
2022/06/26 11:13:54;;;;;;;;;0.00;0.00;;;;;31.12;24.19;100667.81;5111194;27;45386;-76
2022/06/26 11:16:33;;;;;;;;;1.00;0.00;;;;;31.26;25.17;100659.00;5095332;27;45497;-78
2022/06/26 11:19:00;;;;;;;;;1.50;0.00;;;;;31.45;24.48;100657.06;5098272;27;45651;-80
2022/06/26 11:21:27;;;;;;;;;0.00;0.00;;;;;31.27;24.04;100655.28;5102062;27;45420;-81
2022/06/26 11:23:53;;;;;;;;;2.00;0.00;;;;;30.97;24.38;100629.34;5096901;27;45370;-83
2022/06/26 11:26:21;;;;;;;;;0.75;0.00;;;;;31.07;24.21;100616.47;5099049;27;45330;-81
2022/06/26 11:28:54;;;;;;;;;2.00;1.00;;;;;31.17;24.35;100624.53;5101708;27;45455;-79
2022/06/26 11:31:23;;;;;;;;;0.75;0.75;;;;;31.60;25.35;100647.25;5097844;27;45407;-78
2022/06/26 11:33:48;;;;;;;;;1.00;1.00;;;;;31.40;23.61;100640.31;5096087;27;45425;-82
2022/06/26 11:36:17;;;;;;;;;1.00;1.00;;;;;31.51;25.14;100613.56;5098061;27;45453;-80
2022/06/26 11:38:54;;;;;;;;;0.00;0.00;;;;;31.86;24.45;100659.94;5110977;27;45661;-81
2022/06/26 11:41:24;;;;;;;;;1.00;1.00;;;;;31.75;24.37;100642.00;5112182;27;45453;-78
2022/06/26 11:43:54;;;;;;;;;0.00;0.00;;;;;31.61;24.97;100654.41;5095803;27;45435;-78